sensor_id;sensor_type;location;lat;lon;timestamp;pressure;altitude;pressure_sealevel;temperature;humidity
29045;BME280;16133;49.486;12.176;2022-11-15T00:00:49;97317.88;;;-0.77;100.00
29045;BME280;16133;49.486;12.176;2022-11-15T00:03:16;97288.78;;;-0.95;100.00
29045;BME280;16133;49.486;12.176;2022-11-15T00:05:42;97315.16;;;-0.76;100.00
29045;BME280;16133;49.486;12.176;2022-11-15T00:08:07;97268.66;;;-1.04;100.00
29045;BME280;16133;49.486;12.176;2022-11-15T00:10:33;97233.50;;;-1.22;100.00
29045;BME280;16133;49.486;12.176;2022-11-15T00:12:58;97309.09;;;-0.76;100.00
29045;BME280;16133;49.486;12.176;2022-11-15T00:15:24;97301.75;;;-0.82;100.00
29045;BME280;16133;49.486;12.176;2022-11-15T00:17:49;97307.06;;;-0.84;100.00
29045;BME280;16133;49.486;12.176;2022-11-15T00:20:16;97300.69;;;-0.80;100.00
29045;BME280;16133;49.486;12.176;2022-11-15T00:22:42;97301.41;;;-0.78;100.00
29045;BME280;16133;49.486;12.176;2022-11-15T00:25:07;97304.97;;;-0.79;100.00
29045;BME280;16133;49.486;12.176;2022-11-15T00:27:33;97301.41;;;-0.78;100.00
29045;BME280;16133;49.486;12.176;2022-11-15T00:29:58;97304.72;;;-0.76;100.00
29045;BME280;16133;49.486;12.176;2022-11-15T00:32:23;97292.88;;;-0.80;100.00
29045;BME280;16133;49.486;12.176;2022-11-15T00:34:49;97293.47;;;-0.76;100.00
29045;BME280;16133;49.486;12.176;2022-11-15T00:37:14;97298.50;;;-0.73;100.00
29045;BME280;16133;49.486;12.176;2022-11-15T00:39:39;97293.00;;;-0.81;100.00
29045;BME280;16133;49.486;12.176;2022-11-15T00:42:05;97298.09;;;-0.80;100.00
29045;BME280;16133;49.486;12.176;2022-11-15T00:44:30;97296.66;;;-0.84;100.00
29045;BME280;16133;49.486;12.176;2022-11-15T00:46:55;97296.59;;;-0.95;100.00
29045;BME280;16133;49.486;12.176;2022-11-15T00:49:20;97283.81;;;-0.98;100.00
29045;BME280;16133;49.486;12.176;2022-11-15T00:51:46;97295.75;;;-0.96;100.00
29045;BME280;16133;49.486;12.176;2022-11-15T00:54:11;97293.28;;;-0.97;100.00
29045;BME280;16133;49.486;12.176;2022-11-15T00:56:36;97250.28;;;-1.26;100.00
29045;BME280;16133;49.486;12.176;2022-11-15T00:59:02;97290.91;;;-1.00;100.00
29045;BME280;16133;49.486;12.176;2022-11-15T01:01:27;97250.41;;;-1.28;100.00
29045;BME280;16133;49.486;12.176;2022-11-15T01:03:52;97285.09;;;-1.04;100.00
29045;BME280;16133;49.486;12.176;2022-11-15T01:06:18;97280.00;;;-1.05;100.00
29045;BME280;16133;49.486;12.176;2022-11-15T01:08:43;97257.53;;;-1.19;100.00
29045;BME280;16133;49.486;12.176;2022-11-15T01:11:11;97274.69;;;-1.04;100.00
29045;BME280;16133;49.486;12.176;2022-11-15T01:13:37;97256.66;;;-1.07;100.00
29045;BME280;16133;49.486;12.176;2022-11-15T01:16:12;97266.50;;;-0.99;100.00
29045;BME280;16133;49.486;12.176;2022-11-15T01:18:38;97259.53;;;-0.99;100.00
29045;BME280;16133;49.486;12.176;2022-11-15T01:21:06;97260.13;;;-0.95;100.00
29045;BME280;16133;49.486;12.176;2022-11-15T01:23:31;97219.94;;;-1.15;100.00
29045;BME280;16133;49.486;12.176;2022-11-15T01:26:01;97238.13;;;-0.91;100.00
29045;BME280;16133;49.486;12.176;2022-11-15T01:28:32;97215.16;;;-0.97;100.00
29045;BME280;16133;49.486;12.176;2022-11-15T01:30:59;97236.53;;;-0.81;100.00
29045;BME280;16133;49.486;12.176;2022-11-15T01:33:25;97229.69;;;-0.71;100.00
29045;BME280;16133;49.486;12.176;2022-11-15T01:35:50;97225.06;;;-0.67;100.00
29045;BME280;16133;49.486;12.176;2022-11-15T01:38:15;97219.06;;;-0.57;100.00
29045;BME280;16133;49.486;12.176;2022-11-15T01:40:41;97217.63;;;-0.50;100.00
29045;BME280;16133;49.486;12.176;2022-11-15T01:43:31;97206.03;;;-0.45;100.00
29045;BME280;16133;49.486;12.176;2022-11-15T01:46:22;97207.34;;;-0.40;100.00
29045;BME280;16133;49.486;12.176;2022-11-15T01:48:50;97198.38;;;-0.36;100.00
29045;BME280;16133;49.486;12.176;2022-11-15T01:51:18;97187.94;;;-0.36;100.00
29045;BME280;16133;49.486;12.176;2022-11-15T01:53:47;97179.53;;;-0.39;100.00
29045;BME280;16133;49.486;12.176;2022-11-15T01:56:19;97186.63;;;-0.30;100.00
29045;BME280;16133;49.486;12.176;2022-11-15T01:58:45;97187.34;;;-0.28;100.00
29045;BME280;16133;49.486;12.176;2022-11-15T02:01:12;97170.63;;;-0.37;100.00
29045;BME280;16133;49.486;12.176;2022-11-15T02:03:42;97167.91;;;-0.35;100.00
29045;BME280;16133;49.486;12.176;2022-11-15T02:06:11;97184.75;;;-0.28;100.00
29045;BME280;16133;49.486;12.176;2022-11-15T02:08:37;97168.84;;;-0.36;100.00
29045;BME280;16133;49.486;12.176;2022-11-15T02:11:07;97175.84;;;-0.26;100.00
29045;BME280;16133;49.486;12.176;2022-11-15T02:13:32;97143.50;;;-0.45;100.00
29045;BME280;16133;49.486;12.176;2022-11-15T02:16:24;97168.25;;;-0.29;100.00
29045;BME280;16133;49.486;12.176;2022-11-15T02:19:00;97167.19;;;-0.26;100.00
29045;BME280;16133;49.486;12.176;2022-11-15T02:24:26;97165.75;;;-0.30;100.00
29045;BME280;16133;49.486;12.176;2022-11-15T02:30:24;97166.50;;;-0.51;100.00
29045;BME280;16133;49.486;12.176;2022-11-15T02:32:54;97163.88;;;-0.62;100.00
29045;BME280;16133;49.486;12.176;2022-11-15T02:35:31;97178.53;;;-0.72;100.00
29045;BME280;16133;49.486;12.176;2022-11-15T02:43:23;97152.38;;;-1.16;100.00
29045;BME280;16133;49.486;12.176;2022-11-15T02:46:20;97192.91;;;-1.01;100.00
29045;BME280;16133;49.486;12.176;2022-11-15T02:48:48;97172.72;;;-1.21;100.00
29045;BME280;16133;49.486;12.176;2022-11-15T02:51:14;97198.91;;;-1.12;100.00
29045;BME280;16133;49.486;12.176;2022-11-15T02:53:40;97174.81;;;-1.26;100.00
29045;BME280;16133;49.486;12.176;2022-11-15T02:56:09;97190.00;;;-1.20;100.00
29045;BME280;16133;49.486;12.176;2022-11-15T03:01:49;97189.25;;;-1.22;100.00
29045;BME280;16133;49.486;12.176;2022-11-15T03:07:01;97168.41;;;-1.33;100.00
29045;BME280;16133;49.486;12.176;2022-11-15T03:09:34;97176.25;;;-1.22;100.00
29045;BME280;16133;49.486;12.176;2022-11-15T03:12:09;97183.03;;;-1.20;100.00
29045;BME280;16133;49.486;12.176;2022-11-15T03:14:47;97173.66;;;-1.22;100.00
29045;BME280;16133;49.486;12.176;2022-11-15T03:17:26;97172.16;;;-1.14;100.00
29045;BME280;16133;49.486;12.176;2022-11-15T03:19:56;97155.81;;;-1.16;100.00
29045;BME280;16133;49.486;12.176;2022-11-15T03:22:24;97155.00;;;-1.16;100.00
29045;BME280;16133;49.486;12.176;2022-11-15T03:24:58;97164.09;;;-1.11;100.00
29045;BME280;16133;49.486;12.176;2022-11-15T03:27:31;97144.44;;;-1.15;100.00
29045;BME280;16133;49.486;12.176;2022-11-15T03:30:01;97151.22;;;-1.12;100.00
29045;BME280;16133;49.486;12.176;2022-11-15T03:32:31;97150.06;;;-1.08;100.00
29045;BME280;16133;49.486;12.176;2022-11-15T03:35:14;97142.69;;;-1.03;100.00
29045;BME280;16133;49.486;12.176;2022-11-15T03:38:04;97150.31;;;-1.00;100.00
29045;BME280;16133;49.486;12.176;2022-11-15T03:40:39;97129.22;;;-1.08;100.00
29045;BME280;16133;49.486;12.176;2022-11-15T03:45:45;97097.81;;;-1.18;100.00
29045;BME280;16133;49.486;12.176;2022-11-15T03:48:15;97112.44;;;-1.04;100.00
29045;BME280;16133;49.486;12.176;2022-11-15T03:50:43;97122.63;;;-0.90;100.00
29045;BME280;16133;49.486;12.176;2022-11-15T03:53:09;97126.16;;;-0.91;100.00
29045;BME280;16133;49.486;12.176;2022-11-15T03:55:34;97097.50;;;-1.02;100.00
29045;BME280;16133;49.486;12.176;2022-11-15T03:58:00;97123.81;;;-0.83;100.00
29045;BME280;16133;49.486;12.176;2022-11-15T04:00:26;97086.00;;;-1.00;100.00
29045;BME280;16133;49.486;12.176;2022-11-15T04:02:52;97091.03;;;-0.97;100.00
29045;BME280;16133;49.486;12.176;2022-11-15T04:05:17;97107.09;;;-0.80;100.00
29045;BME280;16133;49.486;12.176;2022-11-15T04:07:43;97108.19;;;-0.83;100.00
29045;BME280;16133;49.486;12.176;2022-11-15T04:10:10;97106.16;;;-0.79;100.00
29045;BME280;16133;49.486;12.176;2022-11-15T04:12:38;97091.25;;;-0.88;100.00
29045;BME280;16133;49.486;12.176;2022-11-15T04:15:14;97094.81;;;-0.78;100.00
29045;BME280;16133;49.486;12.176;2022-11-15T04:17:45;97067.59;;;-0.97;100.00
29045;BME280;16133;49.486;12.176;2022-11-15T04:20:12;97103.47;;;-0.78;100.00
29045;BME280;16133;49.486;12.176;2022-11-15T04:22:58;97109.59;;;-0.79;100.00
29045;BME280;16133;49.486;12.176;2022-11-15T04:25:43;97103.56;;;-0.79;100.00
29045;BME280;16133;49.486;12.176;2022-11-15T04:28:08;97080.72;;;-0.98;100.00
29045;BME280;16133;49.486;12.176;2022-11-15T04:30:34;97113.63;;;-0.86;100.00
29045;BME280;16133;49.486;12.176;2022-11-15T04:33:00;97111.25;;;-0.89;100.00
29045;BME280;16133;49.486;12.176;2022-11-15T04:35:25;97107.94;;;-0.91;100.00
29045;BME280;16133;49.486;12.176;2022-11-15T04:37:50;97107.09;;;-0.91;100.00
29045;BME280;16133;49.486;12.176;2022-11-15T04:40:16;97107.94;;;-0.91;100.00
29045;BME280;16133;49.486;12.176;2022-11-15T04:42:42;97105.31;;;-0.91;100.00
29045;BME280;16133;49.486;12.176;2022-11-15T04:45:10;97100.03;;;-0.89;100.00
29045;BME280;16133;49.486;12.176;2022-11-15T04:47:35;97089.00;;;-0.93;100.00
29045;BME280;16133;49.486;12.176;2022-11-15T04:50:01;97094.31;;;-0.83;100.00
29045;BME280;16133;49.486;12.176;2022-11-15T04:52:26;97079.28;;;-0.80;100.00
29045;BME280;16133;49.486;12.176;2022-11-15T04:54:52;97088.28;;;-0.73;100.00
29045;BME280;16133;49.486;12.176;2022-11-15T04:57:18;97058.94;;;-0.86;100.00
29045;BME280;16133;49.486;12.176;2022-11-15T04:59:43;97064.25;;;-0.76;100.00
29045;BME280;16133;49.486;12.176;2022-11-15T05:02:08;97086.06;;;-0.66;100.00
29045;BME280;16133;49.486;12.176;2022-11-15T05:04:34;97083.69;;;-0.69;100.00
29045;BME280;16133;49.486;12.176;2022-11-15T05:06:59;97042.72;;;-0.89;100.00
29045;BME280;16133;49.486;12.176;2022-11-15T05:09:24;97048.75;;;-0.89;100.00
29045;BME280;16133;49.486;12.176;2022-11-15T05:11:49;97056.00;;;-0.81;100.00
29045;BME280;16133;49.486;12.176;2022-11-15T05:14:15;97075.75;;;-0.79;100.00
29045;BME280;16133;49.486;12.176;2022-11-15T05:16:41;97051.56;;;-1.03;100.00
29045;BME280;16133;49.486;12.176;2022-11-15T05:19:06;97079.19;;;-0.89;100.00
29045;BME280;16133;49.486;12.176;2022-11-15T05:21:32;97085.91;;;-0.87;100.00
29045;BME280;16133;49.486;12.176;2022-11-15T05:23:59;97071.03;;;-0.85;100.00
29045;BME280;16133;49.486;12.176;2022-11-15T05:26:25;97065.56;;;-0.93;100.00
29045;BME280;16133;49.486;12.176;2022-11-15T05:28:55;97070.78;;;-0.82;100.00
29045;BME280;16133;49.486;12.176;2022-11-15T05:31:20;97063.66;;;-0.80;100.00
29045;BME280;16133;49.486;12.176;2022-11-15T05:33:46;97048.88;;;-0.79;100.00
29045;BME280;16133;49.486;12.176;2022-11-15T05:36:33;97046.25;;;-0.79;100.00
29045;BME280;16133;49.486;12.176;2022-11-15T05:38:59;97045.81;;;-0.84;100.00
29045;BME280;16133;49.486;12.176;2022-11-15T05:41:48;97045.19;;;-0.88;100.00
29045;BME280;16133;49.486;12.176;2022-11-15T05:44:17;97046.50;;;-0.93;100.00
29045;BME280;16133;49.486;12.176;2022-11-15T05:46:44;96995.84;;;-1.23;100.00
29045;BME280;16133;49.486;12.176;2022-11-15T05:49:12;97014.09;;;-1.12;100.00
29045;BME280;16133;49.486;12.176;2022-11-15T05:51:42;97020.81;;;-1.09;100.00
29045;BME280;16133;49.486;12.176;2022-11-15T05:54:09;97023.19;;;-1.06;100.00
29045;BME280;16133;49.486;12.176;2022-11-15T05:56:35;97006.63;;;-1.16;100.00
29045;BME280;16133;49.486;12.176;2022-11-15T05:59:00;96969.94;;;-1.35;100.00
29045;BME280;16133;49.486;12.176;2022-11-15T06:01:26;97017.28;;;-1.08;100.00
29045;BME280;16133;49.486;12.176;2022-11-15T06:03:52;97025.19;;;-0.99;100.00
29045;BME280;16133;49.486;12.176;2022-11-15T06:06:17;97024.00;;;-1.06;100.00
29045;BME280;16133;49.486;12.176;2022-11-15T06:08:42;97017.88;;;-1.05;100.00
29045;BME280;16133;49.486;12.176;2022-11-15T06:11:08;97011.09;;;-1.07;100.00
29045;BME280;16133;49.486;12.176;2022-11-15T06:13:34;97027.78;;;-0.99;100.00
29045;BME280;16133;49.486;12.176;2022-11-15T06:15:59;97025.78;;;-0.95;100.00
29045;BME280;16133;49.486;12.176;2022-11-15T06:18:25;97008.75;;;-0.99;100.00
29045;BME280;16133;49.486;12.176;2022-11-15T06:20:50;97024.75;;;-0.92;100.00
29045;BME280;16133;49.486;12.176;2022-11-15T06:23:16;96955.97;;;-1.23;100.00
29045;BME280;16133;49.486;12.176;2022-11-15T06:25:41;97013.47;;;-0.82;100.00
29045;BME280;16133;49.486;12.176;2022-11-15T06:28:06;97014.06;;;-0.78;100.00
29045;BME280;16133;49.486;12.176;2022-11-15T06:30:32;97026.50;;;-0.71;100.00
29045;BME280;16133;49.486;12.176;2022-11-15T06:33:05;97018.56;;;-0.69;100.00
29045;BME280;16133;49.486;12.176;2022-11-15T06:35:33;97024.38;;;-0.66;100.00
29045;BME280;16133;49.486;12.176;2022-11-15T06:38:04;97012.97;;;-0.65;100.00
29045;BME280;16133;49.486;12.176;2022-11-15T06:40:30;97022.72;;;-0.67;100.00
29045;BME280;16133;49.486;12.176;2022-11-15T06:42:58;97020.69;;;-0.63;100.00
29045;BME280;16133;49.486;12.176;2022-11-15T06:45:24;97036.22;;;-0.62;100.00
29045;BME280;16133;49.486;12.176;2022-11-15T06:47:50;97031.00;;;-0.62;100.00
29045;BME280;16133;49.486;12.176;2022-11-15T06:50:15;97016.06;;;-0.71;100.00
29045;BME280;16133;49.486;12.176;2022-11-15T06:52:41;97035.03;;;-0.58;100.00
29045;BME280;16133;49.486;12.176;2022-11-15T06:55:07;97031.34;;;-0.55;100.00
29045;BME280;16133;49.486;12.176;2022-11-15T06:57:33;97040.09;;;-0.56;100.00
29045;BME280;16133;49.486;12.176;2022-11-15T06:59:58;97032.28;;;-0.56;100.00
29045;BME280;16133;49.486;12.176;2022-11-15T07:02:24;97024.72;;;-0.59;100.00
29045;BME280;16133;49.486;12.176;2022-11-15T07:04:49;97031.94;;;-0.52;100.00
29045;BME280;16133;49.486;12.176;2022-11-15T07:07:14;97028.13;;;-0.47;100.00
29045;BME280;16133;49.486;12.176;2022-11-15T07:09:40;97032.16;;;-0.43;100.00
29045;BME280;16133;49.486;12.176;2022-11-15T07:12:05;97030.25;;;-0.41;100.00
29045;BME280;16133;49.486;12.176;2022-11-15T07:14:31;97023.00;;;-0.38;100.00
29045;BME280;16133;49.486;12.176;2022-11-15T07:16:56;97019.47;;;-0.37;100.00
29045;BME280;16133;49.486;12.176;2022-11-15T07:19:21;97020.75;;;-0.31;100.00
29045;BME280;16133;49.486;12.176;2022-11-15T07:21:47;97017.66;;;-0.25;100.00
29045;BME280;16133;49.486;12.176;2022-11-15T07:24:12;97021.78;;;-0.23;100.00
29045;BME280;16133;49.486;12.176;2022-11-15T07:26:38;97021.41;;;-0.18;100.00
29045;BME280;16133;49.486;12.176;2022-11-15T07:29:03;97028.75;;;-0.12;100.00
29045;BME280;16133;49.486;12.176;2022-11-15T07:31:29;97023.03;;;-0.06;100.00
29045;BME280;16133;49.486;12.176;2022-11-15T07:33:55;97026.13;;;-0.01;100.00
29045;BME280;16133;49.486;12.176;2022-11-15T07:36:20;97024.66;;;0.06;100.00
29045;BME280;16133;49.486;12.176;2022-11-15T07:38:45;97029.38;;;0.12;100.00
29045;BME280;16133;49.486;12.176;2022-11-15T07:41:11;97030.66;;;0.18;100.00
29045;BME280;16133;49.486;12.176;2022-11-15T07:43:36;97026.88;;;0.22;100.00
29045;BME280;16133;49.486;12.176;2022-11-15T07:46:06;97025.28;;;0.30;100.00
29045;BME280;16133;49.486;12.176;2022-11-15T07:48:37;97026.06;;;0.42;100.00
29045;BME280;16133;49.486;12.176;2022-11-15T07:51:05;97026.56;;;0.57;100.00
29045;BME280;16133;49.486;12.176;2022-11-15T07:53:31;97015.22;;;0.67;100.00
29045;BME280;16133;49.486;12.176;2022-11-15T07:55:56;97018.97;;;0.74;100.00
29045;BME280;16133;49.486;12.176;2022-11-15T07:58:22;97011.91;;;0.86;100.00
29045;BME280;16133;49.486;12.176;2022-11-15T08:00:47;97013.59;;;0.96;100.00
29045;BME280;16133;49.486;12.176;2022-11-15T08:03:15;97004.53;;;1.01;100.00
29045;BME280;16133;49.486;12.176;2022-11-15T08:05:41;96996.31;;;1.05;100.00
29045;BME280;16133;49.486;12.176;2022-11-15T08:08:09;96993.88;;;1.13;100.00
29045;BME280;16133;49.486;12.176;2022-11-15T08:10:34;96999.66;;;1.17;100.00
29045;BME280;16133;49.486;12.176;2022-11-15T08:13:05;96996.50;;;1.23;100.00
29045;BME280;16133;49.486;12.176;2022-11-15T08:15:32;96995.06;;;1.30;100.00
29045;BME280;16133;49.486;12.176;2022-11-15T08:17:59;96995.47;;;1.35;100.00
29045;BME280;16133;49.486;12.176;2022-11-15T08:20:26;97003.34;;;1.44;100.00
29045;BME280;16133;49.486;12.176;2022-11-15T08:22:55;96992.91;;;1.44;100.00
29045;BME280;16133;49.486;12.176;2022-11-15T08:25:20;96996.47;;;1.43;100.00
29045;BME280;16133;49.486;12.176;2022-11-15T08:27:46;96981.88;;;1.41;100.00
29045;BME280;16133;49.486;12.176;2022-11-15T08:30:11;96985.31;;;1.41;100.00
29045;BME280;16133;49.486;12.176;2022-11-15T08:32:37;96967.81;;;1.32;100.00
29045;BME280;16133;49.486;12.176;2022-11-15T08:35:03;96970.19;;;1.45;100.00
29045;BME280;16133;49.486;12.176;2022-11-15T08:37:28;96968.97;;;1.49;100.00
29045;BME280;16133;49.486;12.176;2022-11-15T08:39:53;96966.34;;;1.49;100.00
29045;BME280;16133;49.486;12.176;2022-11-15T08:42:19;96969.78;;;1.50;100.00
29045;BME280;16133;49.486;12.176;2022-11-15T08:44:44;96972.66;;;1.47;100.00
29045;BME280;16133;49.486;12.176;2022-11-15T08:47:13;96972.09;;;1.43;100.00
29045;BME280;16133;49.486;12.176;2022-11-15T08:49:39;96971.28;;;1.42;100.00
29045;BME280;16133;49.486;12.176;2022-11-15T08:52:04;96968.09;;;1.39;100.00
29045;BME280;16133;49.486;12.176;2022-11-15T08:54:29;96969.22;;;1.36;100.00
29045;BME280;16133;49.486;12.176;2022-11-15T08:56:55;96973.47;;;1.37;100.00
29045;BME280;16133;49.486;12.176;2022-11-15T08:59:20;96981.03;;;1.40;100.00
29045;BME280;16133;49.486;12.176;2022-11-15T09:01:46;96974.72;;;1.43;100.00
29045;BME280;16133;49.486;12.176;2022-11-15T09:04:11;96972.38;;;1.50;100.00
29045;BME280;16133;49.486;12.176;2022-11-15T09:06:37;96968.28;;;1.57;100.00
29045;BME280;16133;49.486;12.176;2022-11-15T09:09:02;96963.22;;;1.65;100.00
29045;BME280;16133;49.486;12.176;2022-11-15T09:11:28;96960.72;;;1.73;100.00
29045;BME280;16133;49.486;12.176;2022-11-15T09:13:53;96951.41;;;1.80;100.00
29045;BME280;16133;49.486;12.176;2022-11-15T09:16:19;96957.44;;;1.90;100.00
29045;BME280;16133;49.486;12.176;2022-11-15T09:18:44;96948.91;;;1.98;100.00
29045;BME280;16133;49.486;12.176;2022-11-15T09:21:10;96946.28;;;2.07;100.00
29045;BME280;16133;49.486;12.176;2022-11-15T09:23:35;96937.63;;;2.16;100.00
29045;BME280;16133;49.486;12.176;2022-11-15T09:26:03;96938.28;;;2.28;100.00
29045;BME280;16133;49.486;12.176;2022-11-15T09:28:29;96943.09;;;2.42;100.00
29045;BME280;16133;49.486;12.176;2022-11-15T09:30:59;96938.81;;;2.51;100.00
29045;BME280;16133;49.486;12.176;2022-11-15T09:33:25;96936.19;;;2.60;100.00
29045;BME280;16133;49.486;12.176;2022-11-15T09:35:51;96932.84;;;2.68;100.00
29045;BME280;16133;49.486;12.176;2022-11-15T09:38:17;96920.81;;;2.75;100.00
29045;BME280;16133;49.486;12.176;2022-11-15T09:40:42;96911.28;;;2.83;100.00
29045;BME280;16133;49.486;12.176;2022-11-15T09:51:24;96885.91;;;3.11;100.00
29045;BME280;16133;49.486;12.176;2022-11-15T09:56:40;96866.91;;;3.27;100.00
29045;BME280;16133;49.486;12.176;2022-11-15T09:59:43;96867.53;;;3.38;100.00
29045;BME280;16133;49.486;12.176;2022-11-15T10:02:30;96856.28;;;3.46;100.00
29045;BME280;16133;49.486;12.176;2022-11-15T10:05:01;96850.28;;;3.54;100.00
29045;BME280;16133;49.486;12.176;2022-11-15T10:07:37;96849.72;;;3.60;100.00
29045;BME280;16133;49.486;12.176;2022-11-15T10:10:17;96844.00;;;3.64;100.00
29045;BME280;16133;49.486;12.176;2022-11-15T10:12:47;96831.78;;;3.73;100.00
29045;BME280;16133;49.486;12.176;2022-11-15T10:15:16;96826.75;;;3.79;100.00
29045;BME280;16133;49.486;12.176;2022-11-15T10:20:46;96803.09;;;3.97;100.00
29045;BME280;16133;49.486;12.176;2022-11-15T10:23:14;96806.09;;;4.02;100.00
29045;BME280;16133;49.486;12.176;2022-11-15T10:25:40;96803.50;;;4.10;100.00
29045;BME280;16133;49.486;12.176;2022-11-15T10:28:29;96802.28;;;4.22;100.00
29045;BME280;16133;49.486;12.176;2022-11-15T10:30:59;96798.59;;;4.33;100.00
29045;BME280;16133;49.486;12.176;2022-11-15T10:46:50;96758.94;;;4.94;100.00
29045;BME280;16133;49.486;12.176;2022-11-15T10:49:30;96757.81;;;5.05;100.00
29045;BME280;16133;49.486;12.176;2022-11-15T10:52:13;96748.44;;;5.18;100.00
29045;BME280;16133;49.486;12.176;2022-11-15T10:54:45;96745.50;;;5.29;100.00
29045;BME280;16133;49.486;12.176;2022-11-15T10:57:18;96740.91;;;5.40;100.00
29045;BME280;16133;49.486;12.176;2022-11-15T10:59:49;96740.25;;;5.46;100.00
29045;BME280;16133;49.486;12.176;2022-11-15T11:02:38;96727.75;;;5.56;100.00
29045;BME280;16133;49.486;12.176;2022-11-15T11:05:31;96723.97;;;5.66;100.00
29045;BME280;16133;49.486;12.176;2022-11-15T11:08:23;96710.78;;;5.83;100.00
29045;BME280;16133;49.486;12.176;2022-11-15T11:10:57;96707.19;;;5.92;100.00
29045;BME280;16133;49.486;12.176;2022-11-15T11:13:25;96696.47;;;6.01;100.00
29045;BME280;16133;49.486;12.176;2022-11-15T11:18:26;96685.38;;;6.22;100.00
29045;BME280;16133;49.486;12.176;2022-11-15T11:20:59;96685.00;;;6.33;100.00
29045;BME280;16133;49.486;12.176;2022-11-15T11:50:27;96655.25;;;7.09;100.00
29045;BME280;16133;49.486;12.176;2022-11-15T11:55:26;96633.72;;;7.20;100.00
29045;BME280;16133;49.486;12.176;2022-11-15T12:00:28;96643.19;;;7.29;100.00
29045;BME280;16133;49.486;12.176;2022-11-15T12:03:16;96643.66;;;7.33;100.00
29045;BME280;16133;49.486;12.176;2022-11-15T12:06:05;96644.31;;;7.35;100.00
29045;BME280;16133;49.486;12.176;2022-11-15T12:09:00;96632.16;;;7.48;100.00
29045;BME280;16133;49.486;12.176;2022-11-15T12:11:37;96633.63;;;7.51;100.00
29045;BME280;16133;49.486;12.176;2022-11-15T12:16:54;96628.72;;;7.62;100.00
29045;BME280;16133;49.486;12.176;2022-11-15T12:19:20;96626.34;;;7.67;100.00
29045;BME280;16133;49.486;12.176;2022-11-15T12:22:06;96620.44;;;7.80;100.00
29045;BME280;16133;49.486;12.176;2022-11-15T12:25:06;96611.88;;;7.78;100.00
29045;BME280;16133;49.486;12.176;2022-11-15T12:27:38;96615.09;;;7.74;100.00
29045;BME280;16133;49.486;12.176;2022-11-15T12:30:17;96617.63;;;7.82;100.00
29045;BME280;16133;49.486;12.176;2022-11-15T12:32:58;96623.84;;;7.89;100.00
29045;BME280;16133;49.486;12.176;2022-11-15T12:35:39;96623.91;;;7.95;100.00
29045;BME280;16133;49.486;12.176;2022-11-15T12:38:09;96617.25;;;7.99;100.00
29045;BME280;16133;49.486;12.176;2022-11-15T12:43:50;96620.81;;;8.06;100.00
29045;BME280;16133;49.486;12.176;2022-11-15T12:51:08;96623.72;;;8.11;100.00
29045;BME280;16133;49.486;12.176;2022-11-15T12:53:34;96633.47;;;8.11;100.00
29045;BME280;16133;49.486;12.176;2022-11-15T13:01:07;96620.56;;;8.31;100.00
29045;BME280;16133;49.486;12.176;2022-11-15T13:03:33;96626.47;;;8.33;100.00
29045;BME280;16133;49.486;12.176;2022-11-15T13:06:02;96616.59;;;8.41;100.00
29045;BME280;16133;49.486;12.176;2022-11-15T13:08:54;96609.94;;;8.45;100.00
29045;BME280;16133;49.486;12.176;2022-11-15T13:11:43;96624.59;;;8.48;100.00
29045;BME280;16133;49.486;12.176;2022-11-15T13:17:09;96616.63;;;8.62;100.00
29045;BME280;16133;49.486;12.176;2022-11-15T13:19:38;96624.84;;;8.68;100.00
29045;BME280;16133;49.486;12.176;2022-11-15T13:22:06;96628.59;;;8.73;100.00
29045;BME280;16133;49.486;12.176;2022-11-15T13:24:52;96625.63;;;8.83;100.00
29045;BME280;16133;49.486;12.176;2022-11-15T13:27:19;96624.66;;;8.90;100.00
29045;BME280;16133;49.486;12.176;2022-11-15T13:29:45;96608.50;;;9.00;100.00
29045;BME280;16133;49.486;12.176;2022-11-15T13:32:13;96598.34;;;9.03;100.00
29045;BME280;16133;49.486;12.176;2022-11-15T13:34:43;96612.59;;;9.02;100.00
29045;BME280;16133;49.486;12.176;2022-11-15T13:37:31;96628.41;;;8.96;100.00
29045;BME280;16133;49.486;12.176;2022-11-15T13:40:16;96634.88;;;8.93;100.00
29045;BME280;16133;49.486;12.176;2022-11-15T13:42:43;96648.25;;;8.85;100.00
29045;BME280;16133;49.486;12.176;2022-11-15T13:45:13;96659.13;;;8.76;100.00
29045;BME280;16133;49.486;12.176;2022-11-15T13:47:39;96674.81;;;8.62;100.00
29045;BME280;16133;49.486;12.176;2022-11-15T13:50:05;96677.94;;;8.51;100.00
29045;BME280;16133;49.486;12.176;2022-11-15T13:52:34;96682.88;;;8.40;100.00
29045;BME280;16133;49.486;12.176;2022-11-15T13:55:05;96676.22;;;8.29;100.00
29045;BME280;16133;49.486;12.176;2022-11-15T14:00:06;96674.56;;;8.13;100.00
29045;BME280;16133;49.486;12.176;2022-11-15T14:02:47;96668.53;;;8.05;100.00
29045;BME280;16133;49.486;12.176;2022-11-15T14:05:17;96666.81;;;7.97;100.00
29045;BME280;16133;49.486;12.176;2022-11-15T14:08:23;96661.63;;;7.89;100.00
29045;BME280;16133;49.486;12.176;2022-11-15T14:11:05;96659.91;;;7.82;100.00
29045;BME280;16133;49.486;12.176;2022-11-15T14:13:31;96659.97;;;7.88;100.00
29045;BME280;16133;49.486;12.176;2022-11-15T14:16:18;96651.97;;;7.96;100.00
29045;BME280;16133;49.486;12.176;2022-11-15T14:18:49;96638.41;;;7.99;100.00
29045;BME280;16133;49.486;12.176;2022-11-15T14:21:16;96628.28;;;8.03;100.00
29045;BME280;16133;49.486;12.176;2022-11-15T14:23:41;96625.03;;;8.01;100.00
29045;BME280;16133;49.486;12.176;2022-11-15T14:26:26;96608.97;;;8.02;100.00
29045;BME280;16133;49.486;12.176;2022-11-15T14:28:52;96595.22;;;8.07;100.00
29045;BME280;16133;49.486;12.176;2022-11-15T14:31:18;96594.47;;;8.13;100.00
29045;BME280;16133;49.486;12.176;2022-11-15T14:33:45;96598.31;;;8.10;100.00
29045;BME280;16133;49.486;12.176;2022-11-15T14:36:19;96601.31;;;8.07;100.00
29045;BME280;16133;49.486;12.176;2022-11-15T14:38:45;96600.03;;;8.03;100.00
29045;BME280;16133;49.486;12.176;2022-11-15T14:43:44;96598.22;;;8.04;100.00